Time;durP1;ratioP1;P1;durP2;ratioP2;P2;SDS_P1;SDS_P2;PMS_P1;PMS_P2;Temp;Humidity;BMP_temperature;BMP_pressure;BME280_temperature;BME280_humidity;BME280_pressure;Samples;Min_cycle;Max_cycle;Signal;HPM_P1;HPM_P2
2021/07/19 00:00:00;;;;;;;4.00;3.70;;;18.90;98.20;;;;;;5047402;28;20626;-87
2021/07/19 00:02:27;;;;;;;6.93;3.37;;;18.80;99.00;;;;;;5047096;28;21196;-88
2021/07/19 00:04:55;;;;;;;3.33;3.13;;;18.70;99.40;;;;;;5046732;28;20621;-87
2021/07/19 00:07:23;;;;;;;3.70;3.40;;;18.50;99.70;;;;;;5046714;28;20610;-87
2021/07/19 00:09:50;;;;;;;4.60;3.70;;;18.60;99.90;;;;;;5043937;28;20622;-87
2021/07/19 00:12:18;;;;;;;6.67;4.20;;;18.70;99.70;;;;;;5043936;28;21129;-86
2021/07/19 00:14:47;;;;;;;4.97;3.90;;;18.60;99.90;;;;;;5048482;27;20687;-87
2021/07/19 00:17:15;;;;;;;4.10;3.20;;;18.60;99.90;;;;;;5155886;27;20601;-87
2021/07/19 00:19:42;;;;;;;4.37;3.97;;;18.50;99.90;;;;;;5155415;27;20613;-87
2021/07/19 00:22:09;;;;;;;3.77;3.47;;;18.40;99.90;;;;;;5155319;27;20612;-86
2021/07/19 00:24:36;;;;;;;4.17;3.77;;;18.30;99.90;;;;;;5154595;27;20670;-87
2021/07/19 00:27:04;;;;;;;3.30;3.00;;;18.30;99.90;;;;;;5060074;27;20613;-87
2021/07/19 00:29:32;;;;;;;4.27;3.93;;;18.20;99.90;;;;;;5050914;28;20620;-87
2021/07/19 00:31:59;;;;;;;3.47;3.17;;;18.20;99.90;;;;;;5049789;28;20667;-87
2021/07/19 00:34:26;;;;;;;4.53;3.40;;;18.10;99.90;;;;;;5050241;28;20621;-87
2021/07/19 00:36:55;;;;;;;4.60;3.63;;;18.10;99.90;;;;;;5049119;28;20645;-87
2021/07/19 00:39:23;;;;;;;4.93;3.27;;;18.00;99.90;;;;;;5051107;28;20646;-87
2021/07/19 00:41:50;;;;;;;3.90;3.60;;;18.10;99.90;;;;;;5044511;28;21037;-87
2021/07/19 00:44:20;;;;;;;4.43;4.03;;;18.10;99.90;;;;;;5049107;28;21163;-88
2021/07/19 00:46:48;;;;;;;4.37;3.17;;;18.10;99.90;;;;;;5049579;28;21238;-87
2021/07/19 00:49:15;;;;;;;3.93;3.30;;;18.00;99.90;;;;;;5050004;28;20931;-89
2021/07/19 00:51:42;;;;;;;4.10;3.80;;;17.90;99.90;;;;;;5049860;28;20603;-88
2021/07/19 00:54:11;;;;;;;4.00;3.40;;;17.90;99.90;;;;;;5050085;28;20973;-88
2021/07/19 00:56:39;;;;;;;3.73;3.43;;;17.90;99.90;;;;;;5044096;28;20709;-89
2021/07/19 00:59:08;;;;;;;7.63;4.40;;;17.90;99.90;;;;;;5049732;28;21173;-89
2021/07/19 01:01:40;;;;;;;3.47;3.10;;;17.90;99.90;;;;;;5049270;28;20621;-88
2021/07/19 01:04:10;;;;;;;4.57;3.67;;;17.80;99.90;;;;;;5049374;28;20646;-88
2021/07/19 01:06:39;;;;;;;3.90;3.50;;;17.80;99.90;;;;;;5049428;28;20633;-89
2021/07/19 01:09:07;;;;;;;6.57;3.50;;;17.60;99.90;;;;;;5086022;27;20627;-88
2021/07/19 01:11:38;;;;;;;4.10;3.80;;;17.50;99.90;;;;;;5149130;27;20652;-88
2021/07/19 01:14:11;;;;;;;4.00;3.60;;;17.40;99.90;;;;;;5153982;27;21012;-89
2021/07/19 01:16:39;;;;;;;4.57;3.50;;;17.40;99.90;;;;;;5154084;27;20646;-87
2021/07/19 01:19:10;;;;;;;4.10;3.70;;;17.30;99.90;;;;;;5153916;27;20652;-88
2021/07/19 01:22:04;;;;;;;4.97;4.00;;;17.30;99.90;;;;;;5154437;27;20991;-88
2021/07/19 01:24:43;;;;;;;4.43;4.03;;;17.30;99.90;;;;;;5153352;27;20968;-88
2021/07/19 01:27:38;;;;;;;4.23;3.63;;;17.30;99.90;;;;;;5053106;27;20758;-88
2021/07/19 01:30:09;;;;;;;3.40;3.07;;;17.40;99.90;;;;;;5049181;28;21222;-88
2021/07/19 01:32:40;;;;;;;4.13;3.47;;;17.50;99.90;;;;;;5049547;28;20730;-88
2021/07/19 01:35:10;;;;;;;5.77;4.57;;;17.40;99.90;;;;;;5048717;28;20708;-88
2021/07/19 01:37:43;;;;;;;3.90;3.60;;;17.30;99.90;;;;;;5049805;28;21250;-88
2021/07/19 01:40:13;;;;;;;4.53;3.50;;;17.20;99.90;;;;;;5048963;28;20613;-87
2021/07/19 01:42:42;;;;;;;3.30;3.10;;;17.10;99.90;;;;;;5043826;28;20640;-88
2021/07/19 01:45:13;;;;;;;6.33;3.60;;;17.00;99.90;;;;;;5048518;28;20651;-88
2021/07/19 01:47:42;;;;;;;3.93;3.60;;;16.90;99.90;;;;;;5048739;28;20615;-88
2021/07/19 01:50:10;;;;;;;3.50;3.23;;;16.90;99.90;;;;;;5048980;28;20622;-88
2021/07/19 01:52:39;;;;;;;4.87;3.80;;;16.90;99.90;;;;;;5044799;27;21214;-89
2021/07/19 01:55:08;;;;;;;3.80;3.50;;;16.90;99.90;;;;;;5045250;27;21279;-88
2021/07/19 01:57:38;;;;;;;5.87;4.10;;;16.80;99.90;;;;;;5041028;27;20661;-88
2021/07/19 02:00:08;;;;;;;4.87;4.40;;;16.80;99.90;;;;;;5048306;28;21190;-87
2021/07/19 02:02:39;;;;;;;4.23;3.83;;;16.80;99.90;;;;;;5048648;28;20627;-88
2021/07/19 02:05:10;;;;;;;4.40;3.70;;;16.70;99.90;;;;;;5048440;28;20657;-87
2021/07/19 02:07:41;;;;;;;5.20;3.97;;;16.70;99.90;;;;;;5028722;28;20604;-87
2021/07/19 02:10:13;;;;;;;8.60;4.13;;;16.80;99.90;;;;;;5127883;27;20619;-88
2021/07/19 02:12:44;;;;;;;5.00;4.47;;;16.70;99.90;;;;;;5147501;27;20637;-87
2021/07/19 02:15:14;;;;;;;5.27;3.87;;;16.80;99.90;;;;;;5090024;27;20722;-88
2021/07/19 02:17:50;;;;;;;5.10;3.47;;;16.70;99.90;;;;;;5048521;28;20647;-87
2021/07/19 02:20:20;;;;;;;5.90;4.07;;;16.70;99.90;;;;;;5048682;28;21221;-88
2021/07/19 02:22:55;;;;;;;4.37;3.90;;;16.60;99.90;;;;;;5048238;28;20629;-88
2021/07/19 02:25:36;;;;;;;4.20;3.80;;;16.60;99.90;;;;;;5047961;28;20603;-88
2021/07/19 02:28:07;;;;;;;4.30;4.00;;;16.60;99.90;;;;;;5044194;28;20649;-87
2021/07/19 02:30:37;;;;;;;4.80;4.07;;;16.50;99.90;;;;;;5047796;28;21058;-88
2021/07/19 02:33:07;;;;;;;4.47;4.07;;;16.50;99.90;;;;;;5048457;28;20633;-87
2021/07/19 02:35:35;;;;;;;4.80;4.30;;;16.40;99.90;;;;;;5047516;28;20619;-88
2021/07/19 02:38:05;;;;;;;6.93;4.90;;;16.30;99.90;;;;;;5048050;28;21247;-87
2021/07/19 02:40:33;;;;;;;3.93;3.63;;;16.40;99.90;;;;;;5047916;28;21422;-88
2021/07/19 02:43:04;;;;;;;4.63;4.13;;;16.50;99.90;;;;;;5048068;28;21223;-87
2021/07/19 02:45:35;;;;;;;8.30;4.00;;;16.50;99.90;;;;;;5047547;28;20628;-87
2021/07/19 02:48:03;;;;;;;5.90;4.73;;;16.40;99.90;;;;;;5048488;28;20612;-88
2021/07/19 02:50:32;;;;;;;4.97;4.07;;;16.40;99.90;;;;;;5048251;28;20647;-87
2021/07/19 02:53:01;;;;;;;8.10;4.93;;;16.30;99.90;;;;;;5048252;28;20630;-87
2021/07/19 02:55:30;;;;;;;4.40;4.00;;;16.40;99.90;;;;;;5047518;28;20623;-87
2021/07/19 02:57:58;;;;;;;5.40;3.70;;;16.40;99.90;;;;;;5047959;28;20739;-88
2021/07/19 03:00:25;;;;;;;4.50;4.03;;;16.40;99.90;;;;;;5047849;28;20704;-87
2021/07/19 03:02:58;;;;;;;5.53;3.70;;;16.30;99.90;;;;;;5047937;28;21179;-87
2021/07/19 03:05:29;;;;;;;3.60;3.37;;;16.30;99.90;;;;;;5047734;28;20618;-87
2021/07/19 03:07:59;;;;;;;3.33;3.00;;;16.30;99.90;;;;;;5047842;28;20618;-88
2021/07/19 03:10:29;;;;;;;5.07;4.57;;;16.30;99.90;;;;;;5142245;27;20617;-87
2021/07/19 03:13:01;;;;;;;4.43;4.03;;;16.30;99.90;;;;;;5149748;27;20629;-88
2021/07/19 03:15:31;;;;;;;4.00;3.60;;;16.30;99.90;;;;;;5150589;27;20622;-88
2021/07/19 03:17:59;;;;;;;4.20;3.80;;;16.20;99.90;;;;;;5152206;27;20638;-88
2021/07/19 03:20:27;;;;;;;4.60;4.20;;;16.20;99.90;;;;;;5152380;27;20611;-88
2021/07/19 03:22:56;;;;;;;4.53;4.13;;;16.20;99.90;;;;;;5152339;27;20617;-88
2021/07/19 03:25:26;;;;;;;4.60;3.70;;;16.10;99.90;;;;;;5151959;27;20605;-88
2021/07/19 03:27:55;;;;;;;4.23;3.93;;;16.10;99.90;;;;;;5151456;27;20972;-87
2021/07/19 03:30:23;;;;;;;4.30;3.90;;;16.00;99.90;;;;;;5152148;27;20779;-87
2021/07/19 03:32:51;;;;;;;4.60;4.03;;;16.00;99.90;;;;;;5152336;27;21231;-88
2021/07/19 03:35:22;;;;;;;4.70;3.90;;;16.10;99.90;;;;;;5152085;27;20609;-88
2021/07/19 03:37:49;;;;;;;4.27;3.40;;;16.10;99.90;;;;;;5152102;27;20718;-87
2021/07/19 03:40:20;;;;;;;4.20;3.90;;;16.10;99.90;;;;;;5151861;27;20613;-87
2021/07/19 03:42:49;;;;;;;5.03;4.07;;;16.00;99.90;;;;;;5151849;27;21155;-87
2021/07/19 03:45:17;;;;;;;4.33;3.87;;;16.00;99.90;;;;;;5147181;27;20629;-87
2021/07/19 03:47:46;;;;;;;7.67;4.30;;;16.00;99.90;;;;;;5118496;27;20622;-88
2021/07/19 03:50:13;;;;;;;5.10;4.70;;;16.00;99.90;;;;;;5050541;28;21178;-87
2021/07/19 03:52:41;;;;;;;4.70;4.30;;;16.00;99.90;;;;;;5070528;27;20628;-86
2021/07/19 03:55:10;;;;;;;5.60;4.40;;;16.00;99.90;;;;;;5069863;28;20621;-87
2021/07/19 03:57:38;;;;;;;4.97;4.43;;;16.00;99.90;;;;;;5070610;27;21040;-87
2021/07/19 04:00:09;;;;;;;4.40;4.00;;;16.00;99.90;;;;;;5070927;27;20733;-87
2021/07/19 04:02:37;;;;;;;4.30;3.90;;;15.90;99.90;;;;;;5070572;27;21178;-87
2021/07/19 04:05:07;;;;;;;5.80;3.87;;;16.00;99.90;;;;;;5069467;27;20709;-87
2021/07/19 04:07:37;;;;;;;5.27;4.77;;;16.00;99.90;;;;;;5050544;28;21134;-87
2021/07/19 04:10:06;;;;;;;6.10;5.50;;;16.10;99.90;;;;;;5128001;27;20610;-87
2021/07/19 04:12:33;;;;;;;3.63;3.33;;;16.10;99.90;;;;;;5155694;27;20640;-87
2021/07/19 04:15:01;;;;;;;5.57;3.87;;;16.10;99.90;;;;;;5155496;27;20649;-87
2021/07/19 04:17:31;;;;;;;7.67;4.30;;;16.00;99.90;;;;;;5155181;27;21016;-87
2021/07/19 04:19:58;;;;;;;4.83;3.97;;;16.00;99.90;;;;;;5155775;27;20617;-88
2021/07/19 04:22:26;;;;;;;4.50;3.83;;;16.00;99.90;;;;;;5155817;27;20609;-88
2021/07/19 04:24:54;;;;;;;5.20;3.90;;;16.00;99.90;;;;;;5155526;27;20724;-87
2021/07/19 04:27:21;;;;;;;5.20;4.40;;;16.00;99.90;;;;;;5155606;27;20701;-88
2021/07/19 04:29:51;;;;;;;7.03;4.40;;;16.10;99.90;;;;;;5153698;27;20605;-87
2021/07/19 04:32:20;;;;;;;8.23;4.20;;;16.10;99.90;;;;;;5153422;27;20605;-87
2021/07/19 04:34:49;;;;;;;5.20;4.80;;;16.20;99.90;;;;;;5154993;27;20658;-87
2021/07/19 04:37:16;;;;;;;7.43;4.83;;;16.20;99.90;;;;;;5155342;27;20699;-87
2021/07/19 04:39:43;;;;;;;5.03;4.63;;;16.20;99.90;;;;;;5154154;27;20601;-87
2021/07/19 04:42:11;;;;;;;7.13;6.30;;;16.30;99.90;;;;;;5154176;27;20949;-88
2021/07/19 04:44:39;;;;;;;5.13;4.53;;;16.40;99.90;;;;;;5153834;27;20610;-88
2021/07/19 04:47:07;;;;;;;4.77;4.37;;;16.40;99.90;;;;;;5155990;27;20613;-87
2021/07/19 04:49:34;;;;;;;4.27;3.90;;;16.40;99.90;;;;;;5091116;27;20958;-87
2021/07/19 04:52:03;;;;;;;6.63;5.10;;;16.50;99.90;;;;;;5050064;28;20614;-87
2021/07/19 04:54:37;;;;;;;5.03;4.10;;;16.60;99.90;;;;;;5069231;28;20618;-87
2021/07/19 04:57:06;;;;;;;6.63;4.20;;;16.70;99.90;;;;;;5069936;28;21044;-87
2021/07/19 04:59:39;;;;;;;5.20;4.70;;;16.80;99.90;;;;;;5069302;28;20605;-87
2021/07/19 05:02:11;;;;;;;6.37;4.40;;;17.00;99.90;;;;;;5068430;28;20634;-87
2021/07/19 05:04:39;;;;;;;4.87;4.40;;;17.00;99.90;;;;;;5069317;28;20618;-87
2021/07/19 05:07:08;;;;;;;5.47;4.30;;;17.10;99.90;;;;;;5051449;28;21214;-86
2021/07/19 05:09:40;;;;;;;5.70;4.57;;;17.20;99.90;;;;;;5049193;28;20618;-87
2021/07/19 05:12:11;;;;;;;5.67;4.43;;;17.30;99.90;;;;;;5153988;27;20622;-87
2021/07/19 05:14:40;;;;;;;4.93;4.53;;;17.40;99.90;;;;;;5154000;27;20616;-87
2021/07/19 05:17:10;;;;;;;4.50;4.10;;;17.40;99.90;;;;;;5154213;27;20675;-87
2021/07/19 05:19:38;;;;;;;5.10;4.60;;;17.40;99.90;;;;;;5154422;27;20605;-87
2021/07/19 05:22:10;;;;;;;5.30;4.27;;;17.50;99.90;;;;;;5154566;27;20955;-87
2021/07/19 05:24:38;;;;;;;6.50;4.27;;;17.50;99.90;;;;;;5085297;27;20615;-87
2021/07/19 05:27:06;;;;;;;4.00;3.70;;;17.50;99.90;;;;;;5044301;27;20615;-88
2021/07/19 05:29:35;;;;;;;6.10;5.60;;;17.50;99.90;;;;;;5048625;28;20622;-88
2021/07/19 05:32:02;;;;;;;5.10;4.70;;;17.50;99.90;;;;;;5053954;28;20615;-87
2021/07/19 05:34:29;;;;;;;4.80;4.40;;;17.60;99.90;;;;;;5068259;27;20615;-87
2021/07/19 05:36:56;;;;;;;4.93;4.53;;;17.60;99.90;;;;;;5050980;27;20674;-88
2021/07/19 05:39:25;;;;;;;5.27;4.77;;;17.70;99.90;;;;;;5049293;28;21078;-87
2021/07/19 05:41:52;;;;;;;5.07;4.67;;;17.70;99.90;;;;;;5047380;28;20627;-87
2021/07/19 05:44:19;;;;;;;7.30;5.07;;;17.80;99.90;;;;;;5047104;28;20596;-87
2021/07/19 05:46:47;;;;;;;5.20;4.80;;;17.90;99.90;;;;;;5047664;28;20609;-87
2021/07/19 05:49:14;;;;;;;5.53;4.83;;;17.90;99.90;;;;;;5046794;28;20707;-88
2021/07/19 05:51:42;;;;;;;6.37;5.80;;;18.00;99.90;;;;;;5047666;28;20622;-88
2021/07/19 05:54:09;;;;;;;7.93;5.20;;;18.00;99.90;;;;;;5047625;28;20613;-88
2021/07/19 05:56:38;;;;;;;5.90;4.93;;;18.20;99.90;;;;;;5047682;28;20680;-89
2021/07/19 05:59:05;;;;;;;6.03;4.63;;;18.20;99.90;;;;;;5049074;28;21257;-87
2021/07/19 06:01:32;;;;;;;5.10;4.70;;;18.20;99.90;;;;;;5048642;28;20652;-88
2021/07/19 06:03:59;;;;;;;7.07;5.30;;;18.20;99.90;;;;;;5048568;28;20629;-88
2021/07/19 06:06:26;;;;;;;6.27;5.43;;;18.20;99.90;;;;;;5048261;28;20628;-88
2021/07/19 06:08:54;;;;;;;6.57;4.10;;;18.10;99.90;;;;;;5058626;27;20616;-89
2021/07/19 06:11:21;;;;;;;10.13;4.30;;;18.20;99.90;;;;;;5151646;27;20630;-87
2021/07/19 06:13:49;;;;;;;5.63;4.40;;;18.40;99.90;;;;;;5151962;27;20630;-89
2021/07/19 06:16:22;;;;;;;4.57;4.17;;;18.50;99.90;;;;;;5084633;27;21035;-89
2021/07/19 06:18:49;;;;;;;6.40;5.00;;;18.60;99.90;;;;;;5045672;28;20720;-88
2021/07/19 06:21:16;;;;;;;5.30;4.80;;;18.70;99.90;;;;;;5043919;28;21429;-89
2021/07/19 06:23:43;;;;;;;5.93;5.00;;;18.70;99.90;;;;;;5046371;28;21271;-89
2021/07/19 06:26:11;;;;;;;5.40;4.60;;;18.80;99.90;;;;;;5067130;28;21088;-89
2021/07/19 06:28:38;;;;;;;7.80;5.10;;;18.80;99.90;;;;;;5122259;27;20618;-89
2021/07/19 06:31:07;;;;;;;5.50;5.00;;;19.00;99.90;;;;;;5060811;27;20614;-89
2021/07/19 06:33:33;;;;;;;5.80;4.77;;;19.00;99.90;;;;;;5047923;28;20618;-89
2021/07/19 06:36:00;;;;;;;6.90;5.00;;;19.10;99.90;;;;;;5048125;28;20602;-89
2021/07/19 06:38:27;;;;;;;6.67;4.87;;;19.10;99.90;;;;;;5049004;28;20645;-89
2021/07/19 06:40:54;;;;;;;6.17;5.57;;;19.20;99.90;;;;;;5048301;28;20628;-89
2021/07/19 06:43:21;;;;;;;7.70;4.70;;;19.20;99.90;;;;;;5047678;28;20633;-89
2021/07/19 06:45:51;;;;;;;14.27;5.00;;;19.40;99.90;;;;;;5047915;28;20621;-89
2021/07/19 06:48:20;;;;;;;5.60;4.80;;;19.40;99.90;;;;;;5047972;28;20622;-88
2021/07/19 06:50:47;;;;;;;5.97;5.20;;;19.50;99.90;;;;;;5049272;27;20983;-88
2021/07/19 06:53:14;;;;;;;8.70;4.50;;;19.50;99.90;;;;;;5047931;28;20633;-89
2021/07/19 06:55:41;;;;;;;6.50;5.90;;;19.80;99.90;;;;;;5047776;28;21020;-88
2021/07/19 06:58:08;;;;;;;5.90;5.40;;;19.90;99.90;;;;;;5047911;28;20723;-90
2021/07/19 07:00:35;;;;;;;6.10;5.57;;;19.80;99.90;;;;;;5048020;28;20993;-89
2021/07/19 07:03:02;;;;;;;5.83;5.23;;;19.80;99.90;;;;;;5047620;28;20618;-89
2021/07/19 07:05:31;;;;;;;6.27;5.10;;;19.80;99.90;;;;;;5047372;28;20717;-89
2021/07/19 07:07:58;;;;;;;5.67;4.80;;;19.80;99.90;;;;;;5047675;28;20623;-89
2021/07/19 07:10:25;;;;;;;5.10;4.60;;;19.80;99.90;;;;;;5047340;28;21174;-89
2021/07/19 07:12:52;;;;;;;5.43;4.93;;;19.90;99.90;;;;;;5048341;28;20675;-90
2021/07/19 07:15:21;;;;;;;5.20;4.80;;;20.00;99.90;;;;;;5047935;28;20741;-89
2021/07/19 07:17:50;;;;;;;13.63;5.67;;;20.10;99.90;;;;;;5048378;28;20650;-90
2021/07/19 07:20:18;;;;;;;6.77;5.73;;;20.30;99.90;;;;;;5047759;28;20729;-88
2021/07/19 07:30:15;;;;;;;5.17;4.77;;;20.40;99.90;;;;;;5133330;27;20649;-90
2021/07/19 07:32:43;;;;;;;5.53;4.83;;;20.60;99.90;;;;;;5048071;28;20627;-90
2021/07/19 07:35:13;;;;;;;5.67;5.10;;;20.60;99.90;;;;;;5048347;28;20637;-91
2021/07/19 07:37:40;;;;;;;5.60;4.63;;;20.70;99.90;;;;;;5046451;28;20655;-90
2021/07/19 07:40:12;;;;;;;6.00;5.40;;;20.60;99.90;;;;;;5047555;28;20647;-90
2021/07/19 07:42:45;;;;;;;6.43;5.20;;;20.90;99.90;;;;;;5047428;28;20622;-91
2021/07/19 07:45:20;;;;;;;5.57;5.07;;;21.00;99.90;;;;;;5078574;27;20622;-89
2021/07/19 07:47:56;;;;;;;5.47;4.60;;;20.90;99.90;;;;;;5047216;28;20622;-90
2021/07/19 07:50:23;;;;;;;6.17;5.57;;;20.90;99.90;;;;;;5042550;28;20717;-89
2021/07/19 07:52:54;;;;;;;11.50;5.97;;;21.00;99.90;;;;;;5114209;27;20638;-91
2021/07/19 07:58:19;;;;;;;5.10;4.60;;;21.10;99.90;;;;;;5079075;27;20643;-91
2021/07/19 08:00:46;;;;;;;5.70;5.10;;;21.20;99.90;;;;;;5047605;28;20627;-92
2021/07/19 08:03:13;;;;;;;5.97;5.37;;;21.20;99.90;;;;;;5047797;28;20622;-89
2021/07/19 08:05:40;;;;;;;6.30;5.70;;;21.30;99.90;;;;;;5064691;27;20623;-90
2021/07/19 08:08:16;;;;;;;6.00;5.50;;;21.20;99.90;;;;;;5047070;28;20628;-91
2021/07/19 08:10:51;;;;;;;5.23;4.73;;;21.40;99.90;;;;;;5046938;28;20672;-92
2021/07/19 08:13:21;;;;;;;8.17;5.70;;;21.80;99.90;;;;;;5044996;28;20702;-92
2021/07/19 08:16:36;;;;;;;5.90;5.40;;;21.80;99.10;;;;;;5047032;28;20673;-93
2021/07/19 08:19:14;;;;;;;4.97;4.57;;;21.70;98.60;;;;;;5047924;28;20647;-91
2021/07/19 08:21:45;;;;;;;6.27;5.67;;;21.60;99.00;;;;;;5046479;28;20631;-92
2021/07/19 08:24:29;;;;;;;4.97;4.57;;;21.70;98.60;;;;;;5047419;28;21026;-92
2021/07/19 08:27:04;;;;;;;8.73;6.90;;;22.00;99.10;;;;;;5046965;28;20727;-91
2021/07/19 08:29:38;;;;;;;5.90;5.40;;;22.00;98.40;;;;;;5046467;28;20713;-92
2021/07/19 08:32:19;;;;;;;6.43;5.83;;;22.30;99.10;;;;;;5046985;28;21547;-92
2021/07/19 08:35:10;;;;;;;6.13;5.60;;;22.30;98.20;;;;;;5045764;28;20638;-91
2021/07/19 08:41:00;;;;;;;7.13;6.47;;;22.50;99.40;;;;;;5061438;28;20637;-92
2021/07/19 08:43:35;;;;;;;5.83;5.33;;;22.50;97.80;;;;;;5129663;27;20654;-91
2021/07/19 08:46:24;;;;;;;7.40;5.97;;;22.70;98.80;;;;;;5050099;28;20622;-92
2021/07/19 08:49:32;;;;;;;5.33;4.93;;;22.70;98.50;;;;;;5068831;27;20641;-92
2021/07/19 08:52:17;;;;;;;6.20;5.60;;;22.90;98.80;;;;;;5059912;27;20625;-91
2021/07/19 08:57:40;;;;;;;6.17;5.60;;;23.00;97.90;;;;;;5049479;28;20717;-92
2021/07/19 09:00:30;;;;;;;8.80;6.83;;;23.10;97.60;;;;;;5049711;28;20722;-91
2021/07/19 09:03:13;;;;;;;7.00;5.83;;;23.10;98.00;;;;;;5050324;27;20636;-92
2021/07/19 09:09:07;;;;;;;6.17;5.57;;;23.30;97.70;;;;;;5045849;28;20627;-89
2021/07/19 09:12:00;;;;;;;6.70;6.00;;;23.50;97.60;;;;;;5054105;27;21166;-92
2021/07/19 09:14:40;;;;;;;7.50;5.57;;;23.60;97.40;;;;;;5050783;27;20629;-92
2021/07/19 09:20:44;;;;;;;5.87;5.37;;;23.80;96.10;;;;;;5048291;28;20641;-92
2021/07/19 09:29:28;;;;;;;6.80;6.00;;;24.60;95.60;;;;;;5099316;28;20626;-90
2021/07/19 09:35:53;;;;;;;6.63;5.63;;;24.40;93.50;;;;;;5042606;27;20638;-90
2021/07/19 09:38:20;;;;;;;6.63;6.00;;;24.60;94.30;;;;;;5054562;27;21007;-91
2021/07/19 09:41:26;;;;;;;7.77;5.10;;;25.00;95.10;;;;;;5046193;28;20622;-94
2021/07/19 09:43:53;;;;;;;6.33;5.73;;;25.40;94.50;;;;;;5063715;28;20623;-92
2021/07/19 09:46:49;;;;;;;5.37;4.87;;;25.30;93.20;;;;;;5087308;28;20636;-92
2021/07/19 09:49:40;;;;;;;5.20;4.80;;;25.40;93.00;;;;;;5104224;27;20957;-90
2021/07/19 09:52:13;;;;;;;5.60;5.20;;;24.90;93.00;;;;;;5048323;28;20633;-90
2021/07/19 09:55:39;;;;;;;5.40;4.93;;;24.60;93.50;;;;;;5049655;28;20638;-93
2021/07/19 10:06:11;;;;;;;4.63;4.33;;;25.20;93.10;;;;;;4968861;28;20634;-92
2021/07/19 10:08:57;;;;;;;5.57;4.90;;;25.40;92.80;;;;;;5038068;28;21187;-92
2021/07/19 10:11:30;;;;;;;5.40;4.90;;;25.70;92.40;;;;;;5048629;28;20636;-90
2021/07/19 10:14:03;;;;;;;5.77;5.17;;;25.90;91.60;;;;;;5047591;28;20614;-93
2021/07/19 10:17:12;;;;;;;5.83;5.30;;;26.10;90.60;;;;;;5047583;27;20661;-93
2021/07/19 10:19:41;;;;;;;5.57;5.17;;;26.20;90.90;;;;;;5067925;28;20768;-90
2021/07/19 10:22:10;;;;;;;6.17;5.67;;;26.50;90.70;;;;;;5047529;28;20614;-91
2021/07/19 10:24:42;;;;;;;5.50;5.10;;;26.50;90.80;;;;;;5047782;28;20614;-91
2021/07/19 10:27:14;;;;;;;7.23;4.07;;;26.40;90.00;;;;;;5049056;28;20995;-92
2021/07/19 10:29:45;;;;;;;7.47;4.53;;;26.50;90.30;;;;;;5047941;28;20642;-91
2021/07/19 10:32:12;;;;;;;5.10;4.60;;;26.80;88.70;;;;;;5048159;28;20614;-90
2021/07/19 10:34:42;;;;;;;5.07;4.63;;;27.10;90.30;;;;;;5047836;28;20615;-91
2021/07/19 10:37:14;;;;;;;6.40;4.93;;;26.80;86.40;;;;;;5048535;28;20686;-90
2021/07/19 10:39:45;;;;;;;5.60;5.20;;;26.50;87.60;;;;;;5083137;27;20646;-90
2021/07/19 10:42:13;;;;;;;4.63;4.23;;;26.10;85.00;;;;;;5119180;27;20622;-89
2021/07/19 10:44:43;;;;;;;4.57;4.27;;;26.40;89.20;;;;;;5151694;27;21333;-92
2021/07/19 10:47:20;;;;;;;4.67;4.37;;;26.20;87.90;;;;;;5152309;27;20617;-91
2021/07/19 10:49:57;;;;;;;5.47;4.97;;;26.20;86.50;;;;;;5129909;27;20959;-91
2021/07/19 10:56:02;;;;;;;5.00;4.60;;;26.00;86.90;;;;;;5045900;28;21187;-90
2021/07/19 10:58:40;;;;;;;5.00;4.60;;;26.20;88.10;;;;;;5045525;28;21032;-90
2021/07/19 11:01:20;;;;;;;4.67;4.30;;;26.00;85.00;;;;;;5047512;28;20614;-91
2021/07/19 11:03:47;;;;;;;4.93;4.50;;;25.80;86.80;;;;;;5047556;28;20997;-90
2021/07/19 11:06:14;;;;;;;5.53;4.40;;;25.60;86.80;;;;;;5047612;27;20627;-92
2021/07/19 11:08:53;;;;;;;5.50;4.40;;;25.50;87.00;;;;;;5047973;28;20611;-92
2021/07/19 11:11:29;;;;;;;5.00;4.47;;;25.30;86.30;;;;;;5048283;28;20644;-93
2021/07/19 11:14:30;;;;;;;4.50;4.10;;;25.40;88.60;;;;;;5048008;28;20622;-93
2021/07/19 11:17:10;;;;;;;5.00;4.60;;;26.00;90.10;;;;;;5088484;28;20677;-90
2021/07/19 11:19:53;;;;;;;4.23;3.93;;;26.20;81.80;;;;;;5087568;28;20683;-92
2021/07/19 11:23:03;;;;;;;4.73;4.43;;;26.50;84.80;;;;;;5048192;28;20626;-93
2021/07/19 11:26:26;;;;;;;5.17;4.57;;;27.00;83.70;;;;;;5039730;28;20658;-92
2021/07/19 11:28:58;;;;;;;5.33;4.13;;;27.60;78.90;;;;;;5046251;28;20637;-91
2021/07/19 11:31:30;;;;;;;5.03;4.60;;;27.90;79.80;;;;;;5047073;28;20633;-91
2021/07/19 11:34:08;;;;;;;6.47;4.50;;;28.40;77.20;;;;;;5048024;28;20614;-93
2021/07/19 11:37:17;;;;;;;6.50;3.80;;;28.40;77.00;;;;;;5047512;28;21282;-93
2021/07/19 11:40:32;;;;;;;5.57;4.00;;;28.10;78.80;;;;;;5048097;27;20769;-94
2021/07/19 11:47:18;;;;;;;4.37;3.63;;;27.40;77.10;;;;;;5141079;27;20957;-93
2021/07/19 11:53:21;;;;;;;4.33;4.03;;;29.20;76.70;;;;;;5072377;28;20617;-94
2021/07/19 11:56:10;;;;;;;5.40;3.57;;;29.30;69.40;;;;;;5070981;28;20638;-93
2021/07/19 11:59:03;;;;;;;3.00;2.80;;;29.00;71.70;;;;;;5036124;28;20654;-93
2021/07/19 12:01:32;;;;;;;4.07;3.70;;;28.80;73.70;;;;;;5046746;28;20642;-93
2021/07/19 12:07:26;;;;;;;3.23;2.93;;;30.20;62.20;;;;;;5046136;28;20972;-94
2021/07/19 12:10:04;;;;;;;4.37;3.17;;;31.30;62.50;;;;;;5049893;28;20622;-91
2021/07/19 12:15:28;;;;;;;5.00;3.00;;;33.00;56.10;;;;;;5049152;28;20669;-92
2021/07/19 12:18:22;;;;;;;6.67;3.60;;;33.60;56.00;;;;;;5049742;27;20647;-94
2021/07/19 12:20:57;;;;;;;3.70;2.37;;;34.60;53.10;;;;;;5049485;28;20717;-91
2021/07/19 12:23:24;;;;;;;3.07;2.27;;;33.70;51.60;;;;;;5049692;28;21434;-92
2021/07/19 12:26:15;;;;;;;2.20;2.10;;;34.20;53.30;;;;;;5049829;28;20616;-93
2021/07/19 12:28:53;;;;;;;2.30;2.20;;;35.10;50.80;;;;;;5050089;28;20669;-93
2021/07/19 12:31:34;;;;;;;3.27;2.20;;;35.90;49.60;;;;;;5049729;28;20906;-90
2021/07/19 12:34:16;;;;;;;2.90;2.70;;;36.30;47.20;;;;;;5050201;28;20203;-93
2021/07/19 12:36:50;;;;;;;2.77;2.57;;;36.10;49.60;;;;;;5042149;28;20227;-90
2021/07/19 12:39:20;;;;;;;2.47;2.37;;;36.20;48.80;;;;;;5049521;28;20223;-92
2021/07/19 12:41:52;;;;;;;2.70;2.50;;;35.30;47.20;;;;;;5049244;28;20210;-93
2021/07/19 12:44:25;;;;;;;2.57;2.47;;;34.10;47.60;;;;;;5049521;28;20207;-92
2021/07/19 12:47:00;;;;;;;2.90;2.60;;;33.40;49.80;;;;;;5056628;27;20633;-93
2021/07/19 12:49:36;;;;;;;2.50;2.30;;;34.50;49.30;;;;;;5047583;28;20705;-93
2021/07/19 12:52:09;;;;;;;5.63;2.20;;;34.70;49.00;;;;;;5067584;28;21010;-93
2021/07/19 12:54:58;;;;;;;2.33;2.13;;;36.00;48.60;;;;;;5069333;28;20206;-93
2021/07/19 13:00:15;;;;;;;4.05;2.33;;;37.00;46.90;;;;;;5057332;28;20210;-91
2021/07/19 13:02:48;;;;;;;3.03;2.45;;;36.90;46.50;;;;;;5049341;28;20211;-88
2021/07/19 13:05:17;;;;;;;2.38;2.28;;;37.10;43.30;;;;;;5043724;28;20270;-92
2021/07/19 13:07:47;;;;;;;2.47;2.20;;;37.20;45.00;;;;;;5049322;28;20208;-88
2021/07/19 13:10:17;;;;;;;2.72;2.45;;;37.50;44.00;;;;;;5049406;28;20203;-92
2021/07/19 13:12:50;;;;;;;2.25;2.15;;;37.40;44.20;;;;;;5049523;28;20206;-91
2021/07/19 13:15:19;;;;;;;2.58;2.47;;;37.00;45.40;;;;;;5049197;28;20226;-92
2021/07/19 13:17:48;;;;;;;2.55;2.30;;;37.50;43.70;;;;;;5049407;28;20253;-92
2021/07/19 13:20:17;;;;;;;3.05;2.80;;;36.90;44.30;;;;;;5048624;28;20226;-89
2021/07/19 13:22:47;;;;;;;3.47;2.80;;;35.90;46.00;;;;;;5048680;28;20709;-91
2021/07/19 13:25:21;;;;;;;3.97;3.67;;;34.80;45.70;;;;;;5049432;27;20294;-90
2021/07/19 13:27:49;;;;;;;3.13;2.70;;;35.90;45.40;;;;;;5049295;28;20234;-91
2021/07/19 13:30:18;;;;;;;2.80;2.67;;;35.60;46.00;;;;;;5049184;28;20223;-91
2021/07/19 13:32:49;;;;;;;2.60;2.40;;;36.10;44.70;;;;;;5049292;28;20238;-92
2021/07/19 13:35:18;;;;;;;2.80;2.60;;;34.70;46.20;;;;;;5048409;28;20633;-90
2021/07/19 13:37:49;;;;;;;2.80;2.60;;;34.90;47.40;;;;;;5048859;28;21186;-89
2021/07/19 13:40:18;;;;;;;2.93;2.73;;;34.60;47.00;;;;;;5043459;28;20808;-93
2021/07/19 13:42:47;;;;;;;2.67;2.57;;;35.00;47.30;;;;;;5049015;28;20609;-92
2021/07/19 13:45:20;;;;;;;3.77;2.93;;;35.50;46.10;;;;;;5077754;27;20609;-92
2021/07/19 13:47:51;;;;;;;3.80;3.03;;;35.30;45.70;;;;;;5140413;27;20613;-92
2021/07/19 13:50:19;;;;;;;4.00;3.50;;;32.90;49.20;;;;;;5048335;28;20979;-92
2021/07/19 13:52:48;;;;;;;3.00;2.80;;;32.10;51.30;;;;;;5064765;27;21205;-91
2021/07/19 13:55:16;;;;;;;3.80;3.00;;;30.70;53.30;;;;;;5069358;27;20614;-91
2021/07/19 13:57:43;;;;;;;4.27;3.10;;;29.80;53.20;;;;;;5068713;28;20644;-91
2021/07/19 14:00:16;;;;;;;3.60;3.27;;;30.10;56.00;;;;;;5069143;27;20649;-93
2021/07/19 14:02:48;;;;;;;3.90;3.60;;;31.50;54.60;;;;;;5049965;28;20621;-93
2021/07/19 14:05:18;;;;;;;4.10;3.47;;;31.10;51.80;;;;;;5049430;28;20653;-91
2021/07/19 14:07:47;;;;;;;3.63;3.33;;;30.30;53.20;;;;;;5049978;28;20676;-89
2021/07/19 14:10:14;;;;;;;3.57;3.37;;;30.20;54.30;;;;;;5049631;28;21178;-92
2021/07/19 14:12:42;;;;;;;3.83;3.63;;;29.40;54.60;;;;;;5053236;27;20756;-92